sensor_id;sensor_type;location;lat;lon;timestamp;pressure;altitude;pressure_sealevel;temperature;humidity
5609;BME280;2826;51.354;9.588;2023-03-15T00:01:32;97524.00;;;3.90;61.10
5609;BME280;2826;51.354;9.588;2023-03-15T00:03:58;97526.72;;;3.84;60.73
5609;BME280;2826;51.354;9.588;2023-03-15T00:06:26;97536.09;;;3.85;60.66
5609;BME280;2826;51.354;9.588;2023-03-15T00:08:53;97537.03;;;3.81;60.73
5609;BME280;2826;51.354;9.588;2023-03-15T00:11:19;97537.81;;;3.85;60.75
5609;BME280;2826;51.354;9.588;2023-03-15T00:13:46;97548.13;;;3.83;61.07
5609;BME280;2826;51.354;9.588;2023-03-15T00:16:12;97552.34;;;3.86;60.80
5609;BME280;2826;51.354;9.588;2023-03-15T00:18:42;97549.81;;;3.84;60.85
5609;BME280;2826;51.354;9.588;2023-03-15T00:21:09;97537.28;;;3.70;60.91
5609;BME280;2826;51.354;9.588;2023-03-15T00:23:37;97558.63;;;3.72;61.12
5609;BME280;2826;51.354;9.588;2023-03-15T00:26:03;97552.69;;;3.69;61.30
5609;BME280;2826;51.354;9.588;2023-03-15T00:28:30;97551.00;;;3.68;61.57
5609;BME280;2826;51.354;9.588;2023-03-15T00:31:04;97551.00;;;3.68;61.46
5609;BME280;2826;51.354;9.588;2023-03-15T00:33:32;97546.06;;;3.60;61.78
5609;BME280;2826;51.354;9.588;2023-03-15T00:36:01;97557.16;;;3.60;61.66
5609;BME280;2826;51.354;9.588;2023-03-15T00:38:31;97561.66;;;3.49;62.23
5609;BME280;2826;51.354;9.588;2023-03-15T00:41:03;97562.59;;;3.45;62.75
5609;BME280;2826;51.354;9.588;2023-03-15T00:43:29;97566.03;;;3.45;63.12
5609;BME280;2826;51.354;9.588;2023-03-15T00:45:56;97566.97;;;3.41;62.88
5609;BME280;2826;51.354;9.588;2023-03-15T00:48:23;97565.41;;;3.32;63.47
5609;BME280;2826;51.354;9.588;2023-03-15T00:50:49;97581.47;;;3.42;63.43
5609;BME280;2826;51.354;9.588;2023-03-15T00:53:16;97575.59;;;3.37;63.63
5609;BME280;2826;51.354;9.588;2023-03-15T00:55:43;97578.97;;;3.37;63.34
5609;BME280;2826;51.354;9.588;2023-03-15T00:58:11;97585.88;;;3.35;63.61
5609;BME280;2826;51.354;9.588;2023-03-15T01:00:37;97591.03;;;3.32;63.72
5609;BME280;2826;51.354;9.588;2023-03-15T01:03:08;97580.88;;;3.29;64.02
5609;BME280;2826;51.354;9.588;2023-03-15T01:05:35;97585.22;;;3.24;64.07
5609;BME280;2826;51.354;9.588;2023-03-15T01:08:01;97575.91;;;3.20;64.48
5609;BME280;2826;51.354;9.588;2023-03-15T01:10:29;97568.53;;;3.04;64.52
5609;BME280;2826;51.354;9.588;2023-03-15T01:12:55;97587.06;;;3.17;64.08
5609;BME280;2826;51.354;9.588;2023-03-15T01:15:24;97547.31;;;2.97;64.16
5609;BME280;2826;51.354;9.588;2023-03-15T01:17:51;97599.81;;;3.20;64.29
5609;BME280;2826;51.354;9.588;2023-03-15T01:20:18;97586.16;;;3.20;64.20
5609;BME280;2826;51.354;9.588;2023-03-15T01:22:44;97540.78;;;2.81;64.68
5609;BME280;2826;51.354;9.588;2023-03-15T01:25:13;97588.88;;;3.10;65.05
5609;BME280;2826;51.354;9.588;2023-03-15T01:27:40;97579.53;;;3.08;65.34
5609;BME280;2826;51.354;9.588;2023-03-15T01:30:07;97585.41;;;3.14;64.91
5609;BME280;2826;51.354;9.588;2023-03-15T01:32:35;97587.91;;;3.18;65.04
5609;BME280;2826;51.354;9.588;2023-03-15T01:35:02;97576.84;;;3.16;65.33
5609;BME280;2826;51.354;9.588;2023-03-15T01:37:29;97590.44;;;3.19;65.26
5609;BME280;2826;51.354;9.588;2023-03-15T01:39:56;97586.16;;;3.20;65.26
5609;BME280;2826;51.354;9.588;2023-03-15T01:42:23;97591.19;;;3.24;65.42
5609;BME280;2826;51.354;9.588;2023-03-15T01:44:55;97585.16;;;3.27;65.22
5609;BME280;2826;51.354;9.588;2023-03-15T01:47:25;97582.47;;;3.33;65.19
5609;BME280;2826;51.354;9.588;2023-03-15T01:49:58;97576.69;;;3.25;65.12
5609;BME280;2826;51.354;9.588;2023-03-15T01:52:31;97593.56;;;3.35;65.38
5609;BME280;2826;51.354;9.588;2023-03-15T01:55:04;97590.13;;;3.35;65.79
5609;BME280;2826;51.354;9.588;2023-03-15T01:57:36;97597.75;;;3.39;65.68
5609;BME280;2826;51.354;9.588;2023-03-15T02:00:09;97594.31;;;3.40;65.88
5609;BME280;2826;51.354;9.588;2023-03-15T02:02:50;97595.94;;;3.45;65.54
5609;BME280;2826;51.354;9.588;2023-03-15T02:05:26;97597.59;;;3.46;65.63
5609;BME280;2826;51.354;9.588;2023-03-15T02:07:55;97588.25;;;3.45;65.66
5609;BME280;2826;51.354;9.588;2023-03-15T02:10:30;97597.50;;;3.52;65.49
5609;BME280;2826;51.354;9.588;2023-03-15T02:12:59;97609.31;;;3.58;65.23
5609;BME280;2826;51.354;9.588;2023-03-15T02:15:27;97614.50;;;3.56;65.54
5609;BME280;2826;51.354;9.588;2023-03-15T02:17:54;97614.53;;;3.55;65.34
5609;BME280;2826;51.354;9.588;2023-03-15T02:20:29;97609.44;;;3.53;65.71
5609;BME280;2826;51.354;9.588;2023-03-15T02:23:01;97606.75;;;3.58;65.34
5609;BME280;2826;51.354;9.588;2023-03-15T02:25:37;97611.81;;;3.62;65.17
5609;BME280;2826;51.354;9.588;2023-03-15T02:28:10;97614.34;;;3.64;65.28
5609;BME280;2826;51.354;9.588;2023-03-15T02:30:40;97606.81;;;3.56;65.48
5609;BME280;2826;51.354;9.588;2023-03-15T02:33:10;97609.31;;;3.59;65.84
5609;BME280;2826;51.354;9.588;2023-03-15T02:35:40;97605.00;;;3.61;65.83
5609;BME280;2826;51.354;9.588;2023-03-15T02:38:06;97616.81;;;3.69;65.97
5609;BME280;2826;51.354;9.588;2023-03-15T02:40:33;97614.16;;;3.73;65.58
5609;BME280;2826;51.354;9.588;2023-03-15T02:43:03;97618.41;;;3.74;65.07
5609;BME280;2826;51.354;9.588;2023-03-15T02:45:32;97614.09;;;3.76;64.78
5609;BME280;2826;51.354;9.588;2023-03-15T02:48:01;97623.34;;;3.82;64.54
5609;BME280;2826;51.354;9.588;2023-03-15T02:50:29;97620.78;;;3.84;64.46
5609;BME280;2826;51.354;9.588;2023-03-15T02:52:56;97619.06;;;3.84;64.50
5609;BME280;2826;51.354;9.588;2023-03-15T02:55:23;97621.47;;;3.90;63.63
5609;BME280;2826;51.354;9.588;2023-03-15T02:57:49;97624.97;;;3.88;63.93
5609;BME280;2826;51.354;9.588;2023-03-15T03:00:16;97629.13;;;3.94;63.92
5609;BME280;2826;51.354;9.588;2023-03-15T03:02:46;97628.41;;;3.87;64.51
5609;BME280;2826;51.354;9.588;2023-03-15T03:05:14;97630.25;;;3.80;65.63
5609;BME280;2826;51.354;9.588;2023-03-15T03:07:42;97624.41;;;3.73;66.92
5609;BME280;2826;51.354;9.588;2023-03-15T03:10:11;97644.00;;;3.77;67.62
5609;BME280;2826;51.354;9.588;2023-03-15T03:12:46;97643.28;;;3.71;68.64
5609;BME280;2826;51.354;9.588;2023-03-15T03:15:20;97637.53;;;3.58;69.26
5609;BME280;2826;51.354;9.588;2023-03-15T03:17:48;97654.34;;;3.73;69.21
5609;BME280;2826;51.354;9.588;2023-03-15T03:20:15;97651.06;;;3.64;69.51
5609;BME280;2826;51.354;9.588;2023-03-15T03:22:45;97652.69;;;3.70;69.38
5609;BME280;2826;51.354;9.588;2023-03-15T03:25:11;97656.19;;;3.64;69.62
5609;BME280;2826;51.354;9.588;2023-03-15T03:27:39;97650.13;;;3.69;69.41
5609;BME280;2826;51.354;9.588;2023-03-15T03:30:10;97651.91;;;3.66;69.68
5609;BME280;2826;51.354;9.588;2023-03-15T03:32:40;97657.91;;;3.65;69.62
5609;BME280;2826;51.354;9.588;2023-03-15T03:35:08;97651.00;;;3.69;69.15
5609;BME280;2826;51.354;9.588;2023-03-15T03:37:35;97656.19;;;3.64;69.39
5609;BME280;2826;51.354;9.588;2023-03-15T03:40:08;97657.91;;;3.65;69.22
5609;BME280;2826;51.354;9.588;2023-03-15T03:42:36;97665.66;;;3.62;69.41
5609;BME280;2826;51.354;9.588;2023-03-15T03:45:04;97669.97;;;3.60;69.82
5609;BME280;2826;51.354;9.588;2023-03-15T03:47:36;97686.25;;;3.58;70.26
5609;BME280;2826;51.354;9.588;2023-03-15T03:50:02;97681.03;;;3.62;70.08
5609;BME280;2826;51.354;9.588;2023-03-15T03:52:31;97679.28;;;3.64;70.10
5609;BME280;2826;51.354;9.588;2023-03-15T03:55:05;97675.84;;;3.67;70.08
5609;BME280;2826;51.354;9.588;2023-03-15T03:57:32;97678.28;;;3.72;70.02
5609;BME280;2826;51.354;9.588;2023-03-15T03:59:59;97684.13;;;3.78;69.44
5609;BME280;2826;51.354;9.588;2023-03-15T04:02:29;97697.75;;;3.82;69.43
5609;BME280;2826;51.354;9.588;2023-03-15T04:04:59;97688.25;;;3.87;69.17
5609;BME280;2826;51.354;9.588;2023-03-15T04:07:26;97689.94;;;3.88;68.67
5609;BME280;2826;51.354;9.588;2023-03-15T04:09:55;97684.06;;;3.83;68.80
5609;BME280;2826;51.354;9.588;2023-03-15T04:12:21;97696.69;;;3.92;68.38
5609;BME280;2826;51.354;9.588;2023-03-15T04:14:52;97700.09;;;3.93;68.09
5609;BME280;2826;51.354;9.588;2023-03-15T04:17:20;97718.13;;;3.90;67.93
5609;BME280;2826;51.354;9.588;2023-03-15T04:19:48;97695.03;;;3.91;67.53
5609;BME280;2826;51.354;9.588;2023-03-15T04:22:21;97723.03;;;4.01;67.41
5609;BME280;2826;51.354;9.588;2023-03-15T04:25:20;97717.06;;;4.00;67.48
5609;BME280;2826;51.354;9.588;2023-03-15T04:28:13;97724.97;;;3.89;67.24
5609;BME280;2826;51.354;9.588;2023-03-15T04:30:48;97732.53;;;3.96;66.95
5609;BME280;2826;51.354;9.588;2023-03-15T04:33:36;97729.16;;;3.94;66.54
5609;BME280;2826;51.354;9.588;2023-03-15T04:36:13;97732.50;;;3.97;66.11
5609;BME280;2826;51.354;9.588;2023-03-15T04:38:55;97734.28;;;3.95;66.10
5609;BME280;2826;51.354;9.588;2023-03-15T04:42:00;97736.78;;;3.98;66.02
5609;BME280;2826;51.354;9.588;2023-03-15T04:44:48;97737.66;;;3.96;65.96
5609;BME280;2826;51.354;9.588;2023-03-15T04:47:37;97741.09;;;3.95;66.31
5609;BME280;2826;51.354;9.588;2023-03-15T04:50:23;97736.28;;;3.81;66.91
5609;BME280;2826;51.354;9.588;2023-03-15T04:52:59;97744.47;;;3.98;66.59
5609;BME280;2826;51.354;9.588;2023-03-15T04:55:44;97748.72;;;3.99;66.80
5609;BME280;2826;51.354;9.588;2023-03-15T04:58:34;97749.63;;;3.98;66.96
5609;BME280;2826;51.354;9.588;2023-03-15T05:01:08;97743.63;;;3.98;67.35
5609;BME280;2826;51.354;9.588;2023-03-15T05:03:53;97747.09;;;3.95;67.39
5609;BME280;2826;51.354;9.588;2023-03-15T05:06:44;97754.69;;;4.00;67.28
5609;BME280;2826;51.354;9.588;2023-03-15T05:09:32;97756.53;;;3.93;67.93
5609;BME280;2826;51.354;9.588;2023-03-15T05:12:31;97765.06;;;3.95;67.98
5609;BME280;2826;51.354;9.588;2023-03-15T05:15:12;97755.75;;;3.89;68.85
5609;BME280;2826;51.354;9.588;2023-03-15T05:17:57;97764.28;;;3.91;69.47
5609;BME280;2826;51.354;9.588;2023-03-15T05:20:43;97772.03;;;3.88;70.11
5609;BME280;2826;51.354;9.588;2023-03-15T05:23:36;97770.38;;;3.84;70.41
5609;BME280;2826;51.354;9.588;2023-03-15T05:26:13;97785.66;;;3.90;70.53
5609;BME280;2826;51.354;9.588;2023-03-15T05:28:46;97789.16;;;3.86;70.93
5609;BME280;2826;51.354;9.588;2023-03-15T05:31:31;97797.66;;;3.90;70.83
5609;BME280;2826;51.354;9.588;2023-03-15T05:34:11;97798.69;;;3.79;72.04
5609;BME280;2826;51.354;9.588;2023-03-15T05:36:56;97795.19;;;3.82;71.74
5609;BME280;2826;51.354;9.588;2023-03-15T05:39:41;97796.00;;;3.86;71.65
5609;BME280;2826;51.354;9.588;2023-03-15T05:42:37;97813.25;;;3.79;72.56
5609;BME280;2826;51.354;9.588;2023-03-15T05:45:18;97812.41;;;3.75;73.71
5609;BME280;2826;51.354;9.588;2023-03-15T05:48:05;97815.09;;;3.71;74.38
5609;BME280;2826;51.354;9.588;2023-03-15T05:50:54;97823.53;;;3.76;74.83
5609;BME280;2826;51.354;9.588;2023-03-15T05:53:35;97817.75;;;3.64;75.49
5609;BME280;2826;51.354;9.588;2023-03-15T05:56:23;97822.09;;;3.61;76.18
5609;BME280;2826;51.354;9.588;2023-03-15T05:59:08;97830.63;;;3.63;76.54
5609;BME280;2826;51.354;9.588;2023-03-15T06:01:44;97829.78;;;3.59;76.95
5609;BME280;2826;51.354;9.588;2023-03-15T06:04:20;97831.53;;;3.59;77.08
5609;BME280;2826;51.354;9.588;2023-03-15T06:06:47;97838.38;;;3.58;77.87
5609;BME280;2826;51.354;9.588;2023-03-15T06:09:14;97838.38;;;3.58;78.21
5609;BME280;2826;51.354;9.588;2023-03-15T06:11:42;97841.03;;;3.52;78.60
5609;BME280;2826;51.354;9.588;2023-03-15T06:14:11;97847.06;;;3.49;79.25
5609;BME280;2826;51.354;9.588;2023-03-15T06:17:04;97848.72;;;3.53;79.20
5609;BME280;2826;51.354;9.588;2023-03-15T06:19:32;97853.75;;;3.58;79.30
5609;BME280;2826;51.354;9.588;2023-03-15T06:21:59;97853.75;;;3.58;79.43
5609;BME280;2826;51.354;9.588;2023-03-15T06:24:32;97862.31;;;3.59;79.57
5609;BME280;2826;51.354;9.588;2023-03-15T06:26:59;97861.44;;;3.60;79.80
5609;BME280;2826;51.354;9.588;2023-03-15T06:29:25;97867.41;;;3.60;80.11
5609;BME280;2826;51.354;9.588;2023-03-15T06:31:54;97840.38;;;3.39;80.40
5609;BME280;2826;51.354;9.588;2023-03-15T06:34:22;97865.78;;;3.55;80.83
5609;BME280;2826;51.354;9.588;2023-03-15T06:36:51;97876.09;;;3.50;81.18
5609;BME280;2826;51.354;9.588;2023-03-15T06:39:18;97870.78;;;3.62;80.89
5609;BME280;2826;51.354;9.588;2023-03-15T06:41:44;97875.88;;;3.64;81.11
5609;BME280;2826;51.354;9.588;2023-03-15T06:44:16;97873.31;;;3.64;81.38
5609;BME280;2826;51.354;9.588;2023-03-15T06:46:44;97880.13;;;3.66;81.56
5609;BME280;2826;51.354;9.588;2023-03-15T06:49:11;97894.66;;;3.66;81.14
5609;BME280;2826;51.354;9.588;2023-03-15T06:51:37;97890.41;;;3.63;81.60
5609;BME280;2826;51.354;9.588;2023-03-15T06:54:06;97887.91;;;3.60;81.72
5609;BME280;2826;51.354;9.588;2023-03-15T06:56:34;97899.00;;;3.62;82.09
5609;BME280;2826;51.354;9.588;2023-03-15T06:59:01;97896.47;;;3.59;82.71
5609;BME280;2826;51.354;9.588;2023-03-15T07:01:28;97897.28;;;3.63;82.48
5609;BME280;2826;51.354;9.588;2023-03-15T07:03:54;97903.06;;;3.74;82.11
5609;BME280;2826;51.354;9.588;2023-03-15T07:06:21;97920.22;;;3.72;81.98
5609;BME280;2826;51.354;9.588;2023-03-15T07:08:47;97930.50;;;3.69;81.97
5609;BME280;2826;51.354;9.588;2023-03-15T07:11:15;97943.47;;;3.61;81.51
5609;BME280;2826;51.354;9.588;2023-03-15T07:13:42;97948.72;;;3.52;82.61
5609;BME280;2826;51.354;9.588;2023-03-15T07:16:09;97946.31;;;3.39;83.03
5609;BME280;2826;51.354;9.588;2023-03-15T07:18:36;97953.91;;;3.46;83.37
5609;BME280;2826;51.354;9.588;2023-03-15T07:21:04;97951.31;;;3.49;82.84
5609;BME280;2826;51.354;9.588;2023-03-15T07:23:31;97954.03;;;3.39;83.49
5609;BME280;2826;51.354;9.588;2023-03-15T07:25:57;97960.69;;;3.51;83.22
5609;BME280;2826;51.354;9.588;2023-03-15T07:28:26;97956.31;;;3.58;83.69
5609;BME280;2826;51.354;9.588;2023-03-15T07:30:54;97951.03;;;3.68;83.24
5609;BME280;2826;51.354;9.588;2023-03-15T07:33:21;97951.75;;;3.77;83.39
5609;BME280;2826;51.354;9.588;2023-03-15T07:35:48;97955.81;;;3.92;83.03
5609;BME280;2826;51.354;9.588;2023-03-15T07:38:15;97957.31;;;4.04;82.48
5609;BME280;2826;51.354;9.588;2023-03-15T07:40:42;97955.44;;;4.14;82.62
5609;BME280;2826;51.354;9.588;2023-03-15T07:43:09;97965.53;;;4.25;82.39
5609;BME280;2826;51.354;9.588;2023-03-15T07:45:37;97970.75;;;4.19;82.46
5609;BME280;2826;51.354;9.588;2023-03-15T07:48:07;97975.81;;;4.24;82.52
5609;BME280;2826;51.354;9.588;2023-03-15T07:50:33;97981.53;;;4.40;81.98
5609;BME280;2826;51.354;9.588;2023-03-15T07:53:02;97982.16;;;4.51;81.72
5609;BME280;2826;51.354;9.588;2023-03-15T07:55:30;97981.84;;;4.70;81.23
5609;BME280;2826;51.354;9.588;2023-03-15T07:57:56;97984.88;;;4.89;80.21
5609;BME280;2826;51.354;9.588;2023-03-15T08:00:23;97980.38;;;5.02;79.24
5609;BME280;2826;51.354;9.588;2023-03-15T08:02:51;97984.63;;;5.03;78.48
5609;BME280;2826;51.354;9.588;2023-03-15T08:05:18;97976.19;;;4.96;76.92
5609;BME280;2826;51.354;9.588;2023-03-15T08:07:45;97985.38;;;5.08;76.97
5609;BME280;2826;51.354;9.588;2023-03-15T08:10:12;97985.78;;;5.31;76.72
5609;BME280;2826;51.354;9.588;2023-03-15T08:12:39;97976.06;;;5.44;75.68
5609;BME280;2826;51.354;9.588;2023-03-15T08:15:08;97987.97;;;5.49;73.53
5609;BME280;2826;51.354;9.588;2023-03-15T08:17:34;97998.31;;;5.45;73.60
5609;BME280;2826;51.354;9.588;2023-03-15T08:20:03;98001.28;;;5.28;73.28
5609;BME280;2826;51.354;9.588;2023-03-15T08:22:30;98000.44;;;5.26;73.70
5609;BME280;2826;51.354;9.588;2023-03-15T08:24:57;98010.47;;;4.95;73.80
5609;BME280;2826;51.354;9.588;2023-03-15T08:27:24;98006.44;;;4.83;74.47
5609;BME280;2826;51.354;9.588;2023-03-15T08:29:51;98018.75;;;4.64;74.71
5609;BME280;2826;51.354;9.588;2023-03-15T08:32:18;98023.94;;;4.61;75.25
5609;BME280;2826;51.354;9.588;2023-03-15T08:34:45;98028.28;;;4.59;74.93
5609;BME280;2826;51.354;9.588;2023-03-15T08:37:14;98034.75;;;4.30;74.96
5609;BME280;2826;51.354;9.588;2023-03-15T08:39:41;97997.50;;;4.04;73.99
5609;BME280;2826;51.354;9.588;2023-03-15T08:42:08;98044.09;;;4.34;74.04
5609;BME280;2826;51.354;9.588;2023-03-15T08:44:35;98045.03;;;4.28;73.98
5609;BME280;2826;51.354;9.588;2023-03-15T08:47:01;98053.56;;;4.32;73.31
5609;BME280;2826;51.354;9.588;2023-03-15T08:49:29;98059.56;;;4.29;73.88
5609;BME280;2826;51.354;9.588;2023-03-15T08:51:56;98061.34;;;4.24;73.88
5609;BME280;2826;51.354;9.588;2023-03-15T08:54:24;98064.78;;;4.23;73.92
5609;BME280;2826;51.354;9.588;2023-03-15T08:56:51;98070.72;;;4.27;74.57
5609;BME280;2826;51.354;9.588;2023-03-15T08:59:18;98075.91;;;4.25;74.68
5609;BME280;2826;51.354;9.588;2023-03-15T09:01:46;98073.25;;;4.28;75.13
5609;BME280;2826;51.354;9.588;2023-03-15T09:04:13;98084.34;;;4.32;74.97
5609;BME280;2826;51.354;9.588;2023-03-15T09:06:39;98087.69;;;4.37;75.01
5609;BME280;2826;51.354;9.588;2023-03-15T09:09:06;98095.31;;;4.40;75.02
5609;BME280;2826;51.354;9.588;2023-03-15T09:11:34;98094.63;;;4.32;75.40
5609;BME280;2826;51.354;9.588;2023-03-15T09:14:01;98103.00;;;4.43;75.55
5609;BME280;2826;51.354;9.588;2023-03-15T09:16:28;98106.31;;;4.50;75.78
5609;BME280;2826;51.354;9.588;2023-03-15T09:18:55;98107.78;;;4.65;76.23
5609;BME280;2826;51.354;9.588;2023-03-15T09:21:21;98103.97;;;4.87;75.94
5609;BME280;2826;51.354;9.588;2023-03-15T09:23:48;98102.69;;;5.11;76.02
5609;BME280;2826;51.354;9.588;2023-03-15T09:26:15;98098.38;;;5.13;73.48
5609;BME280;2826;51.354;9.588;2023-03-15T09:28:42;98102.94;;;5.44;71.68
5609;BME280;2826;51.354;9.588;2023-03-15T09:31:09;98100.88;;;5.62;71.82
5609;BME280;2826;51.354;9.588;2023-03-15T09:33:35;98102.84;;;5.90;70.92
5609;BME280;2826;51.354;9.588;2023-03-15T09:36:02;98095.72;;;6.03;70.43
5609;BME280;2826;51.354;9.588;2023-03-15T09:38:28;98112.78;;;6.09;69.06
5609;BME280;2826;51.354;9.588;2023-03-15T09:40:56;98113.44;;;6.17;68.59
5609;BME280;2826;51.354;9.588;2023-03-15T09:46:31;98112.03;;;6.78;65.23
5609;BME280;2826;51.354;9.588;2023-03-15T09:49:04;98122.94;;;6.88;63.89
5609;BME280;2826;51.354;9.588;2023-03-15T09:51:38;98129.09;;;6.82;61.52
5609;BME280;2826;51.354;9.588;2023-03-15T09:54:10;98126.59;;;6.79;61.99
5609;BME280;2826;51.354;9.588;2023-03-15T09:56:41;98137.66;;;6.46;57.76
5609;BME280;2826;51.354;9.588;2023-03-15T09:59:12;98116.88;;;6.18;57.21
5609;BME280;2826;51.354;9.588;2023-03-15T10:01:42;98144.28;;;6.20;58.45
5609;BME280;2826;51.354;9.588;2023-03-15T10:04:13;98102.38;;;5.72;57.87
5609;BME280;2826;51.354;9.588;2023-03-15T10:06:46;98139.50;;;6.03;57.86
5609;BME280;2826;51.354;9.588;2023-03-15T10:09:17;98143.50;;;6.17;58.18
5609;BME280;2826;51.354;9.588;2023-03-15T10:11:52;98149.78;;;6.43;57.04
5609;BME280;2826;51.354;9.588;2023-03-15T10:14:29;98149.09;;;6.34;55.02
5609;BME280;2826;51.354;9.588;2023-03-15T10:17:09;98146.38;;;6.42;56.32
5609;BME280;2826;51.354;9.588;2023-03-15T10:19:44;98151.50;;;6.04;56.63
5609;BME280;2826;51.354;9.588;2023-03-15T10:22:20;98150.91;;;5.89;58.16
5609;BME280;2826;51.354;9.588;2023-03-15T10:24:53;98153.34;;;5.97;57.99
5609;BME280;2826;51.354;9.588;2023-03-15T10:27:26;98152.81;;;6.22;58.42
5609;BME280;2826;51.354;9.588;2023-03-15T10:29:55;98155.56;;;6.52;58.62
5609;BME280;2826;51.354;9.588;2023-03-15T10:32:26;98155.28;;;6.65;57.38
5609;BME280;2826;51.354;9.588;2023-03-15T10:34:55;98157.69;;;6.73;57.09
5609;BME280;2826;51.354;9.588;2023-03-15T10:37:23;98137.22;;;7.01;57.13
5609;BME280;2826;51.354;9.588;2023-03-15T10:39:54;98152.03;;;7.26;54.22
5609;BME280;2826;51.354;9.588;2023-03-15T10:42:27;98164.13;;;7.24;52.45
5609;BME280;2826;51.354;9.588;2023-03-15T10:44:54;98164.00;;;6.96;54.12
5609;BME280;2826;51.354;9.588;2023-03-15T10:47:24;98162.97;;;6.66;54.38
5609;BME280;2826;51.354;9.588;2023-03-15T10:49:55;98162.34;;;6.19;56.88
5609;BME280;2826;51.354;9.588;2023-03-15T10:52:27;98167.28;;;5.85;58.00
5609;BME280;2826;51.354;9.588;2023-03-15T10:54:59;98122.97;;;5.28;59.47
5609;BME280;2826;51.354;9.588;2023-03-15T10:57:32;98124.09;;;5.59;60.12
5609;BME280;2826;51.354;9.588;2023-03-15T11:00:02;98154.63;;;6.19;58.97
5609;BME280;2826;51.354;9.588;2023-03-15T11:02:32;98162.53;;;6.85;57.03
5609;BME280;2826;51.354;9.588;2023-03-15T11:05:02;98155.41;;;7.30;56.23
5609;BME280;2826;51.354;9.588;2023-03-15T11:07:34;98157.44;;;7.50;54.20
5609;BME280;2826;51.354;9.588;2023-03-15T11:10:04;98164.34;;;7.48;51.75
5609;BME280;2826;51.354;9.588;2023-03-15T11:12:32;98168.88;;;7.40;53.17
5609;BME280;2826;51.354;9.588;2023-03-15T11:15:02;98164.75;;;7.34;52.93
5609;BME280;2826;51.354;9.588;2023-03-15T11:17:34;98170.47;;;7.12;49.41
5609;BME280;2826;51.354;9.588;2023-03-15T11:20:05;98179.44;;;7.30;48.58
5609;BME280;2826;51.354;9.588;2023-03-15T11:22:37;98181.34;;;7.57;47.22
5609;BME280;2826;51.354;9.588;2023-03-15T11:25:07;98167.69;;;7.83;48.89
5609;BME280;2826;51.354;9.588;2023-03-15T11:27:37;98176.13;;;7.90;48.04
5609;BME280;2826;51.354;9.588;2023-03-15T11:30:04;98180.47;;;7.56;47.93
5609;BME280;2826;51.354;9.588;2023-03-15T11:32:31;98192.28;;;7.34;49.05
5609;BME280;2826;51.354;9.588;2023-03-15T11:35:02;98187.41;;;7.21;49.63
5609;BME280;2826;51.354;9.588;2023-03-15T11:37:36;98193.47;;;7.20;50.93
5609;BME280;2826;51.354;9.588;2023-03-15T11:40:10;98183.41;;;7.11;49.37
5609;BME280;2826;51.354;9.588;2023-03-15T11:42:45;98197.59;;;7.27;49.67
5609;BME280;2826;51.354;9.588;2023-03-15T11:45:18;98191.47;;;7.63;50.35
5609;BME280;2826;51.354;9.588;2023-03-15T11:47:49;98194.53;;;7.78;48.17
5609;BME280;2826;51.354;9.588;2023-03-15T11:50:18;98199.13;;;7.68;48.26
5609;BME280;2826;51.354;9.588;2023-03-15T11:52:49;98182.44;;;7.15;47.55
5609;BME280;2826;51.354;9.588;2023-03-15T11:55:19;98201.56;;;7.41;48.96
5609;BME280;2826;51.354;9.588;2023-03-15T11:57:48;98183.38;;;7.77;48.81
5609;BME280;2826;51.354;9.588;2023-03-15T12:03:30;98189.69;;;7.97;46.86
5609;BME280;2826;51.354;9.588;2023-03-15T12:06:03;98205.66;;;8.40;47.26
5609;BME280;2826;51.354;9.588;2023-03-15T12:08:42;98207.00;;;8.54;46.19
5609;BME280;2826;51.354;9.588;2023-03-15T12:11:10;98200.13;;;8.81;44.42
5609;BME280;2826;51.354;9.588;2023-03-15T12:13:37;98209.22;;;8.93;44.86
5609;BME280;2826;51.354;9.588;2023-03-15T12:16:19;98204.09;;;8.92;42.48
5609;BME280;2826;51.354;9.588;2023-03-15T12:18:46;98214.09;;;8.75;42.59
5609;BME280;2826;51.354;9.588;2023-03-15T12:21:18;98205.81;;;8.35;41.90
5609;BME280;2826;51.354;9.588;2023-03-15T12:23:58;98213.31;;;7.51;44.91
5609;BME280;2826;51.354;9.588;2023-03-15T12:26:37;98220.72;;;7.30;45.27
5609;BME280;2826;51.354;9.588;2023-03-15T12:29:10;98212.13;;;7.63;47.22
5609;BME280;2826;51.354;9.588;2023-03-15T12:31:43;98213.28;;;7.84;47.62
5609;BME280;2826;51.354;9.588;2023-03-15T12:34:14;98215.84;;;8.16;45.48
5609;BME280;2826;51.354;9.588;2023-03-15T12:36:50;98228.03;;;8.41;46.16
5609;BME280;2826;51.354;9.588;2023-03-15T12:39:21;98218.69;;;8.66;45.12
5609;BME280;2826;51.354;9.588;2023-03-15T12:42:01;98223.75;;;8.70;44.03
5609;BME280;2826;51.354;9.588;2023-03-15T12:44:38;98225.91;;;8.84;42.87
5609;BME280;2826;51.354;9.588;2023-03-15T12:47:06;98219.84;;;8.85;42.18
5609;BME280;2826;51.354;9.588;2023-03-15T12:49:38;98214.69;;;8.84;42.34
5609;BME280;2826;51.354;9.588;2023-03-15T12:52:24;98219.78;;;8.87;40.68
5609;BME280;2826;51.354;9.588;2023-03-15T12:54:58;98210.09;;;8.94;37.28
5609;BME280;2826;51.354;9.588;2023-03-15T12:57:28;98205.94;;;9.15;39.10
5609;BME280;2826;51.354;9.588;2023-03-15T12:59:57;98208.50;;;9.17;39.05
5609;BME280;2826;51.354;9.588;2023-03-15T13:02:28;98208.84;;;9.31;38.83
5609;BME280;2826;51.354;9.588;2023-03-15T13:05:02;98209.41;;;9.15;38.22
5609;BME280;2826;51.354;9.588;2023-03-15T13:07:36;98213.41;;;9.24;39.34
5609;BME280;2826;51.354;9.588;2023-03-15T13:13:36;98208.47;;;9.67;39.19
5609;BME280;2826;51.354;9.588;2023-03-15T13:16:20;98206.41;;;9.77;38.81
5609;BME280;2826;51.354;9.588;2023-03-15T13:18:57;98206.13;;;9.85;37.84
5609;BME280;2826;51.354;9.588;2023-03-15T13:21:27;98215.53;;;9.64;37.18
5609;BME280;2826;51.354;9.588;2023-03-15T13:23:58;98218.06;;;9.65;37.93
5609;BME280;2826;51.354;9.588;2023-03-15T13:26:45;98213.09;;;9.34;37.55
5609;BME280;2826;51.354;9.588;2023-03-15T13:29:18;98208.78;;;9.34;36.40
5609;BME280;2826;51.354;9.588;2023-03-15T13:31:58;98219.91;;;9.36;37.25
5609;BME280;2826;51.354;9.588;2023-03-15T13:34:27;98204.69;;;8.44;37.12
5609;BME280;2826;51.354;9.588;2023-03-15T13:36:57;98225.78;;;8.30;38.10
5609;BME280;2826;51.354;9.588;2023-03-15T13:39:29;98203.13;;;8.39;37.89
5609;BME280;2826;51.354;9.588;2023-03-15T13:41:57;98209.41;;;8.88;38.21
5609;BME280;2826;51.354;9.588;2023-03-15T13:44:25;98206.22;;;8.80;38.94
5609;BME280;2826;51.354;9.588;2023-03-15T13:46:52;98220.69;;;8.57;38.45
5609;BME280;2826;51.354;9.588;2023-03-15T13:49:20;98210.94;;;8.66;39.62
5609;BME280;2826;51.354;9.588;2023-03-15T13:51:48;98216.03;;;8.96;39.21
5609;BME280;2826;51.354;9.588;2023-03-15T13:54:17;98220.03;;;9.33;37.85
5609;BME280;2826;51.354;9.588;2023-03-15T13:56:55;98217.84;;;9.72;38.44
5609;BME280;2826;51.354;9.588;2023-03-15T13:59:26;98222.72;;;9.79;37.17
5609;BME280;2826;51.354;9.588;2023-03-15T14:01:57;98220.34;;;9.99;37.81
5609;BME280;2826;51.354;9.588;2023-03-15T14:04:26;98219.78;;;10.14;37.09